createdAt,value
2023-04-29T00:01:33.715Z,100263.31
2023-04-29T00:04:02.385Z,100269.06
2023-04-29T00:06:31.747Z,100272.00
2023-04-29T00:09:01.302Z,100267.78
2023-04-29T00:11:31.179Z,100275.38
2023-04-29T00:13:59.240Z,100270.16
2023-04-29T00:16:28.722Z,100276.47
2023-04-29T00:18:56.937Z,100272.00
2023-04-29T00:21:27.387Z,100265.03
2023-04-29T00:23:56.134Z,100268.34
2023-04-29T00:26:24.450Z,100263.91
2023-04-29T00:28:55.214Z,100276.47
2023-04-29T00:31:23.714Z,100265.38
2023-04-29T00:33:52.780Z,100269.41
2023-04-29T00:36:22.337Z,100272.03
2023-04-29T00:38:50.431Z,100279.75
2023-04-29T00:41:18.626Z,100276.63
2023-04-29T00:43:46.966Z,100275.31
2023-04-29T00:46:16.706Z,100279.56
2023-04-29T00:48:45.570Z,100284.69
2023-04-29T00:51:15.272Z,100281.69
2023-04-29T00:53:44.939Z,100288.91
2023-04-29T00:56:14.975Z,100286.88
2023-04-29T00:58:49.793Z,100285.00
2023-04-29T01:01:20.085Z,100284.06
2023-04-29T01:03:48.895Z,100275.94
2023-04-29T01:06:28.859Z,100276.28
2023-04-29T01:09:12.002Z,100276.09
2023-04-29T01:11:48.707Z,100281.06
2023-04-29T01:14:19.576Z,100277.31
2023-04-29T01:16:53.752Z,100277.88
2023-04-29T01:19:40.221Z,100283.25
2023-04-29T01:22:08.536Z,100275.31
2023-04-29T01:24:38.583Z,100275.16
2023-04-29T01:27:19.723Z,100277.75
2023-04-29T01:30:01.428Z,100273.28
2023-04-29T01:32:42.365Z,100281.38
2023-04-29T01:35:35.902Z,100282.69
2023-04-29T01:38:18.392Z,100281.38
2023-04-29T01:40:56.614Z,100285.28
2023-04-29T01:43:31.826Z,100276.63
2023-04-29T01:46:08.101Z,100278.47
2023-04-29T01:48:38.499Z,100282.53
2023-04-29T01:51:07.231Z,100284.56
2023-04-29T01:53:36.065Z,100283.66
2023-04-29T01:56:06.685Z,100275.88
2023-04-29T01:58:53.698Z,100278.28
2023-04-29T02:02:00.500Z,100283.66
2023-04-29T02:04:28.968Z,100284.06
2023-04-29T02:06:58.068Z,100291.81
2023-04-29T02:09:26.644Z,100288.28
2023-04-29T02:12:04.667Z,100298.09
2023-04-29T02:14:36.841Z,100294.56
2023-04-29T02:17:06.540Z,100294.34
2023-04-29T02:19:35.626Z,100301.34
2023-04-29T02:22:04.189Z,100307.09
2023-04-29T02:24:32.752Z,100304.31
2023-04-29T02:27:00.961Z,100300.97
2023-04-29T02:29:35.905Z,100306.53
2023-04-29T02:32:04.573Z,100307.09
2023-04-29T02:34:34.068Z,100310.78
2023-04-29T02:37:03.180Z,100311.34
2023-04-29T02:39:31.542Z,100315.41
2023-04-29T02:42:00.160Z,100319.66
2023-04-29T02:44:28.457Z,100316.91
2023-04-29T02:46:58.127Z,100317.28
2023-04-29T02:49:26.864Z,100320.63
2023-04-29T02:51:55.189Z,100321.94
2023-04-29T02:54:24.819Z,100328.97
2023-04-29T02:56:53.457Z,100329.91
2023-04-29T02:59:21.616Z,100320.69
2023-04-29T03:01:51.338Z,100319.44
2023-04-29T03:04:21.010Z,100322.63
2023-04-29T03:06:50.049Z,100318.75
2023-04-29T03:09:18.222Z,100320.41
2023-04-29T03:11:48.064Z,100324.84
2023-04-29T03:14:18.575Z,100323.19
2023-04-29T03:16:48.581Z,100318.03
2023-04-29T03:19:17.899Z,100325.56
2023-04-29T03:21:47.440Z,100325.56
2023-04-29T03:24:15.910Z,100326.88
2023-04-29T03:26:44.228Z,100326.34
2023-04-29T03:29:12.899Z,100323.75
2023-04-29T03:31:41.716Z,100326.72
2023-04-29T03:34:10.603Z,100327.09
2023-04-29T03:36:42.702Z,100324.88
2023-04-29T03:39:12.922Z,100333.94
2023-04-29T03:41:41.310Z,100333.94
2023-04-29T03:44:10.734Z,100330.22
2023-04-29T03:46:38.977Z,100339.84
2023-04-29T03:49:08.525Z,100332.06
2023-04-29T03:51:37.004Z,100338.91
2023-04-29T03:54:16.176Z,100345.72
2023-04-29T03:56:46.463Z,100348.13
2023-04-29T03:59:15.020Z,100346.47
2023-04-29T04:01:43.836Z,100345.16
2023-04-29T04:04:13.415Z,100349.41
2023-04-29T04:06:51.170Z,100356.97
2023-04-29T04:09:23.213Z,100359.53
2023-04-29T04:11:51.874Z,100361.38
2023-04-29T04:14:20.702Z,100360.25
2023-04-29T04:16:50.673Z,100379.31
2023-04-29T04:19:30.052Z,100369.16
2023-04-29T04:21:58.640Z,100377.06
2023-04-29T04:24:28.769Z,100377.97
2023-04-29T04:26:57.173Z,100387.59
2023-04-29T04:29:38.913Z,100381.66
2023-04-29T04:32:19.299Z,100389.81
2023-04-29T04:34:48.370Z,100381.09
2023-04-29T04:37:19.000Z,100385.69
2023-04-29T04:39:54.212Z,100388.66
2023-04-29T04:42:23.769Z,100394.94
2023-04-29T04:44:54.580Z,100393.06
2023-04-29T04:47:51.860Z,100399.00
2023-04-29T04:50:27.382Z,100396.75
2023-04-29T04:52:57.933Z,100400.28
2023-04-29T04:55:49.972Z,100409.13
2023-04-29T04:58:19.901Z,100419.44
2023-04-29T05:00:48.436Z,100406.50
2023-04-29T05:03:27.522Z,100418.50
2023-04-29T05:06:00.410Z,100405.94
2023-04-29T05:08:35.675Z,100421.09
2023-04-29T05:11:32.607Z,100427.19
2023-04-29T05:14:11.955Z,100431.06
2023-04-29T05:16:40.839Z,100423.47
2023-04-29T05:19:09.847Z,100437.69
2023-04-29T05:21:41.250Z,100440.25
2023-04-29T05:24:11.657Z,100437.66
2023-04-29T05:26:43.452Z,100442.09
2023-04-29T05:29:13.443Z,100440.97
2023-04-29T05:31:52.144Z,100452.41
2023-04-29T05:34:20.678Z,100454.63
2023-04-29T05:36:49.482Z,100464.63
2023-04-29T05:39:19.100Z,100463.09
2023-04-29T05:41:53.071Z,100463.44
2023-04-29T05:44:35.216Z,100473.44
2023-04-29T05:47:03.965Z,100476.75
2023-04-29T05:49:32.498Z,100480.97
2023-04-29T05:52:04.137Z,100486.13
2023-04-29T05:54:35.570Z,100485.16
2023-04-29T05:57:05.429Z,100485.84
2023-04-29T05:59:33.966Z,100485.28
2023-04-29T06:02:11.811Z,100487.28
2023-04-29T06:04:43.021Z,100497.06
2023-04-29T06:07:32.409Z,100491.88
2023-04-29T06:10:03.798Z,100498.72
2023-04-29T06:12:34.707Z,100500.34
2023-04-29T06:15:03.100Z,100500.72
2023-04-29T06:17:32.254Z,100500.34
2023-04-29T06:20:02.149Z,100494.97
2023-04-29T06:22:31.007Z,100504.19
2023-04-29T06:25:01.909Z,100505.97
2023-04-29T06:27:52.038Z,100505.16
2023-04-29T06:30:24.672Z,100513.19
2023-04-29T06:32:53.708Z,100513.28
2023-04-29T06:35:23.726Z,100524.69
2023-04-29T06:38:04.805Z,100513.63
2023-04-29T06:40:47.699Z,100510.63
2023-04-29T06:43:41.213Z,100507.69
2023-04-29T06:46:37.806Z,100519.47
2023-04-29T06:49:26.573Z,100523.97
2023-04-29T06:51:55.146Z,100521.78
2023-04-29T06:54:23.419Z,100515.41
2023-04-29T06:56:52.143Z,100522.88
2023-04-29T06:59:22.638Z,100519.72
2023-04-29T07:01:53.246Z,100517.66
2023-04-29T07:04:22.361Z,100529.13
2023-04-29T07:06:51.218Z,100528.00
2023-04-29T07:09:20.549Z,100528.16
2023-04-29T07:11:48.685Z,100537.47
2023-04-29T07:14:17.052Z,100534.22
2023-04-29T07:16:49.014Z,100531.59
2023-04-29T07:19:17.767Z,100529.72
2023-04-29T07:21:46.647Z,100540.47
2023-04-29T07:24:17.873Z,100536.53
2023-04-29T07:26:49.283Z,100539.28
2023-04-29T07:29:19.282Z,100544.69
2023-04-29T07:31:50.841Z,100555.28
2023-04-29T07:34:19.085Z,100554.38
2023-04-29T07:36:47.937Z,100551.25
2023-04-29T07:39:17.116Z,100555.44
2023-04-29T07:41:50.403Z,100565.69
2023-04-29T07:44:18.759Z,100554.53
2023-04-29T07:46:49.082Z,100567.16
2023-04-29T07:49:18.895Z,100564.84
2023-04-29T07:51:47.891Z,100579.69
2023-04-29T07:54:17.332Z,100570.13
2023-04-29T07:56:45.859Z,100570.69
2023-04-29T07:59:15.225Z,100573.94
2023-04-29T08:01:43.705Z,100585.44
2023-04-29T08:04:12.965Z,100578.13
2023-04-29T08:06:52.126Z,100581.72
2023-04-29T08:09:20.413Z,100578.78
2023-04-29T08:11:48.768Z,100583.56
2023-04-29T08:14:16.927Z,100584.91
2023-04-29T08:16:45.616Z,100591.00
2023-04-29T08:19:13.959Z,100592.72
2023-04-29T08:21:42.704Z,100597.72
2023-04-29T08:24:12.291Z,100593.19
2023-04-29T08:26:41.396Z,100593.78
2023-04-29T08:29:10.792Z,100607.00
2023-04-29T08:31:40.952Z,100597.28
2023-04-29T08:34:09.160Z,100597.94
2023-04-29T08:36:38.689Z,100603.75
2023-04-29T08:39:06.864Z,100604.53
2023-04-29T08:41:37.951Z,100606.47
2023-04-29T08:44:06.905Z,100608.94
2023-04-29T08:46:35.470Z,100620.41
2023-04-29T08:49:05.318Z,100612.16
2023-04-29T08:51:35.285Z,100615.84
2023-04-29T08:54:04.150Z,100608.56
2023-04-29T08:56:44.751Z,100620.34
2023-04-29T08:59:16.325Z,100619.78
2023-04-29T09:01:50.740Z,100623.47
2023-04-29T09:04:32.478Z,100627.97
2023-04-29T09:07:02.488Z,100629.84
2023-04-29T09:09:33.306Z,100629.63
2023-04-29T09:12:03.232Z,100629.63
2023-04-29T09:14:34.293Z,100634.69
2023-04-29T09:17:07.198Z,100632.81
2023-04-29T09:19:38.004Z,100628.09
2023-04-29T09:22:07.482Z,100638.22
2023-04-29T09:24:39.597Z,100638.72
2023-04-29T09:27:28.224Z,100642.81
2023-04-29T09:30:03.521Z,100642.69
2023-04-29T09:32:35.459Z,100645.59
2023-04-29T09:35:26.693Z,100651.97
2023-04-29T09:38:09.647Z,100652.25
2023-04-29T09:40:56.746Z,100656.31
2023-04-29T09:43:28.021Z,100666.13
2023-04-29T09:45:57.271Z,100658.84
2023-04-29T09:48:38.251Z,100662.28
2023-04-29T09:51:09.820Z,100662.75
2023-04-29T09:53:41.139Z,100665.59
2023-04-29T09:56:09.598Z,100666.06
2023-04-29T09:58:46.914Z,100656.00
2023-04-29T10:01:25.288Z,100666.28
2023-04-29T10:04:02.558Z,100667.13
2023-04-29T10:06:33.973Z,100665.78
2023-04-29T10:09:04.082Z,100673.53
2023-04-29T10:11:32.511Z,100662.78
2023-04-29T10:14:05.905Z,100669.47
2023-04-29T10:16:44.055Z,100667.75
2023-04-29T10:19:17.102Z,100667.91
2023-04-29T10:21:51.077Z,100674.06
2023-04-29T10:24:22.648Z,100672.19
2023-04-29T10:26:56.011Z,100676.59
2023-04-29T10:29:30.848Z,100676.72
2023-04-29T10:32:03.520Z,100675.09
2023-04-29T10:34:33.842Z,100679.06
2023-04-29T10:37:10.132Z,100690.16
2023-04-29T10:39:50.483Z,100675.25
2023-04-29T10:42:33.008Z,100690.09
2023-04-29T10:45:38.927Z,100670.00
2023-04-29T10:48:14.780Z,100678.78
2023-04-29T10:51:03.288Z,100680.03
2023-04-29T10:53:33.870Z,100682.97
2023-04-29T10:56:14.566Z,100679.53
2023-04-29T10:58:45.166Z,100679.16
2023-04-29T11:01:18.472Z,100682.50
2023-04-29T11:04:00.263Z,100672.78
2023-04-29T11:06:44.220Z,100682.88
2023-04-29T11:09:18.691Z,100680.59
2023-04-29T11:12:05.081Z,100676.31
2023-04-29T11:14:38.095Z,100682.44
2023-04-29T11:17:13.939Z,100675.22
2023-04-29T11:19:44.975Z,100672.47
2023-04-29T11:22:33.623Z,100672.97
2023-04-29T11:25:05.766Z,100680.69
2023-04-29T11:27:40.578Z,100673.19
2023-04-29T11:30:11.095Z,100680.31
2023-04-29T11:35:27.504Z,100675.50
2023-04-29T11:37:56.844Z,100682.97
2023-04-29T11:40:25.753Z,100687.19
2023-04-29T11:42:55.864Z,100687.28
2023-04-29T11:45:26.808Z,100685.72
2023-04-29T11:47:59.183Z,100684.50
2023-04-29T11:50:28.605Z,100687.41
2023-04-29T11:53:01.277Z,100684.38
2023-04-29T11:55:33.699Z,100674.34
2023-04-29T11:58:02.461Z,100693.69
2023-04-29T12:00:32.455Z,100686.44
2023-04-29T12:03:02.813Z,100691.75
2023-04-29T12:05:31.585Z,100687.78
2023-04-29T12:08:01.636Z,100690.72
2023-04-29T12:10:32.000Z,100684.53
2023-04-29T12:13:06.232Z,100689.09
2023-04-29T12:15:40.364Z,100687.63
2023-04-29T12:18:10.881Z,100694.25
2023-04-29T12:20:41.396Z,100689.53
2023-04-29T12:23:26.198Z,100702.91
2023-04-29T12:26:06.768Z,100696.31
2023-04-29T12:28:44.531Z,100700.59
2023-04-29T12:31:28.924Z,100691.47
2023-04-29T12:34:07.524Z,100696.19
2023-04-29T12:36:45.029Z,100694.53
2023-04-29T12:39:17.842Z,100700.75
2023-04-29T12:41:49.997Z,100700.75
2023-04-29T12:44:24.335Z,100699.09
2023-04-29T12:46:56.911Z,100692.19
2023-04-29T12:49:33.372Z,100695.25
2023-04-29T12:52:04.135Z,100692.91
2023-04-29T12:54:34.694Z,100690.97
2023-04-29T12:57:10.252Z,100697.50
2023-04-29T12:59:47.940Z,100692.59
2023-04-29T13:02:36.775Z,100692.72
2023-04-29T13:05:14.037Z,100691.31
2023-04-29T13:07:47.416Z,100698.41
2023-04-29T13:10:21.074Z,100688.06
2023-04-29T13:12:52.336Z,100694.19
2023-04-29T13:15:37.705Z,100691.88
2023-04-29T13:18:11.744Z,100693.41
2023-04-29T13:20:43.233Z,100700.53
2023-04-29T13:23:12.689Z,100692.31
2023-04-29T13:25:44.266Z,100691.84
2023-04-29T13:28:13.004Z,100705.28
2023-04-29T13:30:42.445Z,100694.13
2023-04-29T13:33:13.578Z,100690.50
2023-04-29T13:35:49.549Z,100695.75
2023-04-29T13:38:20.996Z,100705.94
2023-04-29T13:41:01.371Z,100698.16
2023-04-29T13:43:39.012Z,100689.88
2023-04-29T13:46:11.422Z,100699.38
2023-04-29T13:51:56.211Z,100698.06
2023-04-29T14:04:28.019Z,100697.22
2023-04-29T14:06:59.058Z,100698.75
2023-04-29T14:09:29.183Z,100694.78
2023-04-29T14:12:07.291Z,100692.75
2023-04-29T14:14:35.837Z,100695.59
2023-04-29T14:17:06.953Z,100690.69
2023-04-29T14:19:36.078Z,100694.47
2023-04-29T14:22:07.097Z,100695.88
2023-04-29T14:24:36.680Z,100697.19
2023-04-29T14:27:05.066Z,100701.72
2023-04-29T14:29:33.708Z,100705.06
2023-04-29T14:32:02.385Z,100705.47
2023-04-29T14:34:30.797Z,100698.69
2023-04-29T14:36:59.296Z,100701.41
2023-04-29T14:39:30.413Z,100706.59
2023-04-29T14:42:00.809Z,100709.66
2023-04-29T14:44:30.476Z,100715.59
2023-04-29T14:46:58.969Z,100712.50
2023-04-29T14:49:30.283Z,100713.41
2023-04-29T14:51:59.651Z,100719.41
2023-04-29T14:54:30.228Z,100719.28
2023-04-29T14:56:58.358Z,100727.00
2023-04-29T14:59:28.488Z,100724.56
2023-04-29T15:01:57.119Z,100723.47
2023-04-29T15:04:28.454Z,100724.47
2023-04-29T15:06:58.810Z,100727.56
2023-04-29T15:09:32.279Z,100728.06
2023-04-29T15:12:04.892Z,100732.97
2023-04-29T15:14:34.144Z,100740.16
2023-04-29T15:17:02.532Z,100730.06
2023-04-29T15:19:31.474Z,100747.22
2023-04-29T15:22:00.775Z,100735.72
2023-04-29T15:24:30.421Z,100732.88
2023-04-29T15:27:03.866Z,100730.59
2023-04-29T15:29:34.413Z,100733.28
2023-04-29T15:32:02.768Z,100740.63
2023-04-29T15:34:32.030Z,100735.06
2023-04-29T15:37:00.739Z,100741.69
2023-04-29T15:39:30.841Z,100741.22
2023-04-29T15:42:00.255Z,100747.44
2023-04-29T15:44:28.524Z,100745.66
2023-04-29T15:46:56.986Z,100747.59
2023-04-29T15:49:25.566Z,100745.66
2023-04-29T15:51:54.282Z,100745.75
2023-04-29T15:54:23.124Z,100747.81
2023-04-29T15:56:52.841Z,100739.88
2023-04-29T15:59:21.450Z,100742.22
2023-04-29T16:01:50.030Z,100746.53
2023-04-29T16:04:18.469Z,100747.81
2023-04-29T16:06:46.894Z,100744.91
2023-04-29T16:09:15.881Z,100750.66
2023-04-29T16:11:45.855Z,100752.72
2023-04-29T16:14:18.371Z,100754.28
2023-04-29T16:16:47.057Z,100751.50
2023-04-29T16:19:15.903Z,100756.94
2023-04-29T16:21:45.738Z,100759.75
2023-04-29T16:24:14.480Z,100759.69
2023-04-29T16:26:44.180Z,100767.00
2023-04-29T16:29:14.842Z,100767.16
2023-04-29T16:31:44.626Z,100758.72
2023-04-29T16:34:14.081Z,100761.59
2023-04-29T16:36:42.571Z,100760.53
2023-04-29T16:39:10.767Z,100763.16
2023-04-29T16:41:39.079Z,100755.69
2023-04-29T16:44:07.975Z,100757.47
2023-04-29T16:46:36.420Z,100761.88
2023-04-29T16:49:07.443Z,100763.06
2023-04-29T16:51:36.348Z,100754.34
2023-04-29T16:54:04.774Z,100751.72
2023-04-29T16:56:35.265Z,100758.31
2023-04-29T16:59:03.646Z,100756.00
2023-04-29T17:01:33.292Z,100756.84
2023-04-29T17:04:02.258Z,100757.34
2023-04-29T17:06:32.387Z,100769.97
2023-04-29T17:09:02.415Z,100770.53
2023-04-29T17:11:31.120Z,100766.56
2023-04-29T17:13:59.304Z,100778.94
2023-04-29T17:16:28.845Z,100770.00
2023-04-29T17:18:57.421Z,100775.22
2023-04-29T17:21:26.065Z,100779.06
2023-04-29T17:23:55.928Z,100779.78
2023-04-29T17:26:24.098Z,100788.94
2023-04-29T17:28:52.290Z,100785.69
2023-04-29T17:31:25.292Z,100794.88
2023-04-29T17:34:05.031Z,100796.22
2023-04-29T17:36:33.774Z,100792.28
2023-04-29T17:39:09.988Z,100799.84
2023-04-29T17:41:38.740Z,100795.97
2023-04-29T17:44:07.979Z,100794.47
2023-04-29T17:46:36.163Z,100795.16
2023-04-29T17:49:05.692Z,100806.22
2023-04-29T17:51:34.142Z,100809.09
2023-04-29T17:54:04.833Z,100807.84
2023-04-29T17:56:35.066Z,100805.78
2023-04-29T17:59:05.266Z,100815.91
2023-04-29T18:01:33.708Z,100812.44
2023-04-29T18:04:03.625Z,100816.03
2023-04-29T18:06:31.989Z,100813.59
2023-04-29T18:09:00.608Z,100823.38
2023-04-29T18:11:31.665Z,100827.47
2023-04-29T18:14:06.043Z,100825.88
2023-04-29T18:16:42.970Z,100826.75
2023-04-29T18:19:13.354Z,100826.03
2023-04-29T18:21:44.537Z,100830.56
2023-04-29T18:24:12.953Z,100823.06
2023-04-29T18:26:41.406Z,100825.84
2023-04-29T18:29:11.462Z,100821.84
2023-04-29T18:31:40.305Z,100828.38
2023-04-29T18:34:08.683Z,100822.81
2023-04-29T18:36:37.038Z,100839.56
2023-04-29T18:39:05.518Z,100840.59
2023-04-29T18:41:33.940Z,100833.41
2023-04-29T18:44:02.131Z,100829.41
2023-04-29T18:46:31.777Z,100837.78
2023-04-29T18:49:00.021Z,100838.91
2023-04-29T18:51:28.305Z,100837.63
2023-04-29T18:53:56.511Z,100841.56
2023-04-29T18:56:24.643Z,100840.16
2023-04-29T18:58:52.850Z,100847.53
2023-04-29T19:01:24.152Z,100857.63
2023-04-29T19:03:54.479Z,100853.72
2023-04-29T19:06:23.086Z,100851.88
2023-04-29T19:08:51.380Z,100858.13
2023-04-29T19:11:22.718Z,100864.66
2023-04-29T19:13:50.943Z,100863.75
2023-04-29T19:16:19.415Z,100859.81
2023-04-29T19:18:48.048Z,100860.00
2023-04-29T19:21:18.657Z,100874.47
2023-04-29T19:23:47.483Z,100883.16
2023-04-29T19:26:15.960Z,100886.84
2023-04-29T19:28:44.509Z,100890.13
2023-04-29T19:31:12.774Z,100885.81
2023-04-29T19:33:41.337Z,100888.47
2023-04-29T19:36:11.281Z,100894.19
2023-04-29T19:38:41.275Z,100890.50
2023-04-29T19:41:09.628Z,100891.03
2023-04-29T19:43:37.908Z,100892.16
2023-04-29T19:46:06.603Z,100896.25
2023-04-29T19:48:34.871Z,100889.75
2023-04-29T19:51:03.523Z,100888.66
2023-04-29T19:53:31.996Z,100896.28
2023-04-29T19:56:01.809Z,100897.00
2023-04-29T19:58:32.508Z,100897.75
2023-04-29T20:01:00.947Z,100903.16
2023-04-29T20:03:29.325Z,100902.56
2023-04-29T20:05:59.310Z,100905.91
2023-04-29T20:08:28.807Z,100910.41
2023-04-29T20:11:02.917Z,100903.38
2023-04-29T20:13:31.215Z,100902.84
2023-04-29T20:15:59.346Z,100907.47
2023-04-29T20:18:28.150Z,100906.53
2023-04-29T20:20:56.430Z,100910.25
2023-04-29T20:23:24.703Z,100909.34
2023-04-29T20:25:52.798Z,100913.81
2023-04-29T20:28:22.287Z,100911.38
2023-04-29T20:30:51.008Z,100917.31
2023-04-29T20:33:19.163Z,100913.03
2023-04-29T20:35:47.274Z,100911.03
2023-04-29T20:38:15.454Z,100918.03
2023-04-29T20:40:44.337Z,100920.50
2023-04-29T20:43:13.912Z,100910.47
2023-04-29T20:45:43.861Z,100915.09
2023-04-29T20:48:12.411Z,100915.09
2023-04-29T20:50:40.626Z,100914.00
2023-04-29T20:53:10.195Z,100911.94
2023-04-29T20:55:38.901Z,100919.72
2023-04-29T20:58:07.285Z,100921.44
2023-04-29T21:00:35.941Z,100920.50
2023-04-29T21:03:06.063Z,100932.72
2023-04-29T21:05:34.447Z,100932.19
2023-04-29T21:08:02.837Z,100929.75
2023-04-29T21:10:31.025Z,100924.03
2023-04-29T21:13:00.226Z,100928.84
2023-04-29T21:15:29.459Z,100930.16
2023-04-29T21:18:02.389Z,100937.56
2023-04-29T21:20:37.650Z,100937.56
2023-04-29T21:23:07.172Z,100930.69
2023-04-29T21:25:35.846Z,100928.28
2023-04-29T21:28:08.552Z,100929.03
2023-04-29T21:30:36.642Z,100923.47
2023-04-29T21:33:05.534Z,100926.06
2023-04-29T21:35:35.075Z,100927.34
2023-04-29T21:38:03.601Z,100928.47
2023-04-29T21:40:32.024Z,100932.72
2023-04-29T21:43:00.584Z,100926.81
2023-04-29T21:45:28.864Z,100930.88
2023-04-29T21:48:04.866Z,100932.72
2023-04-29T21:50:35.052Z,100940.88
2023-04-29T21:53:06.179Z,100936.81
2023-04-29T21:55:34.627Z,100934.78
2023-04-29T21:58:02.948Z,100933.47
2023-04-29T22:00:33.150Z,100933.47
2023-04-29T22:03:02.065Z,100946.25
2023-04-29T22:05:30.618Z,100941.25
2023-04-29T22:08:01.757Z,100944.59
2023-04-29T22:10:31.207Z,100937.91
2023-04-29T22:12:59.597Z,100943.13
2023-04-29T22:15:29.870Z,100945.13
2023-04-29T22:17:58.462Z,100947.56
2023-04-29T22:20:27.389Z,100947.75
2023-04-29T22:22:56.295Z,100953.66
2023-04-29T22:25:26.304Z,100955.72
2023-04-29T22:27:54.587Z,100956.09
2023-04-29T22:30:22.770Z,100951.28
2023-04-29T22:32:52.429Z,100956.44
2023-04-29T22:35:20.924Z,100946.44
2023-04-29T22:37:49.217Z,100956.44
2023-04-29T22:40:17.708Z,100956.25
2023-04-29T22:42:52.710Z,100958.09
2023-04-29T22:45:21.044Z,100954.59
2023-04-29T22:47:49.286Z,100956.97
2023-04-29T22:50:17.804Z,100966.63
2023-04-29T22:52:45.951Z,100961.06
2023-04-29T22:55:14.222Z,100969.41
2023-04-29T22:57:42.921Z,100964.59
2023-04-29T23:00:15.739Z,100965.53
2023-04-29T23:02:44.468Z,100965.31
2023-04-29T23:05:13.119Z,100958.28
2023-04-29T23:07:42.146Z,100960.53
2023-04-29T23:10:11.166Z,100960.50
2023-04-29T23:12:39.292Z,100956.63
2023-04-29T23:15:09.784Z,100963.81
2023-04-29T23:17:39.817Z,100970.31
2023-04-29T23:20:13.160Z,100979.94
2023-04-29T23:22:41.274Z,100971.59
2023-04-29T23:25:09.742Z,100975.28
2023-04-29T23:27:38.206Z,100979.38
2023-04-29T23:30:09.755Z,100982.31
2023-04-29T23:32:39.279Z,100979.88
2023-04-29T23:35:08.280Z,100971.56
2023-04-29T23:37:36.650Z,100974.13
2023-04-29T23:40:05.951Z,100967.84
2023-04-29T23:42:34.326Z,100971.56
2023-04-29T23:45:05.311Z,100970.44
2023-04-29T23:47:33.618Z,100981.56
2023-04-29T23:50:04.010Z,100971.56
2023-04-29T23:52:32.214Z,100977.69
2023-04-29T23:55:00.778Z,100972.69
2023-04-29T23:57:28.890Z,100976.63
2023-04-29T23:59:57.166Z,100974.75
